createdAt,value
2017-11-10T00:02:09.089Z,13.93
2017-11-10T00:04:36.503Z,17.67
2017-11-10T00:07:03.910Z,16.07
2017-11-10T00:09:31.330Z,14.67
2017-11-10T00:11:59.514Z,15.07
2017-11-10T00:14:27.697Z,15.97
2017-11-10T00:16:55.115Z,15.67
2017-11-10T00:19:22.538Z,16.33
2017-11-10T00:21:49.947Z,14.50
2017-11-10T00:24:18.127Z,15.17
2017-11-10T00:26:46.317Z,14.17
2017-11-10T00:29:13.714Z,15.77
2017-11-10T00:31:41.129Z,15.93
2017-11-10T00:34:08.535Z,15.30
2017-11-10T00:36:35.957Z,14.97
2017-11-10T00:39:03.395Z,14.60
2017-11-10T00:41:30.807Z,15.90
2017-11-10T00:43:58.231Z,15.13
2017-11-10T00:46:25.647Z,14.77
2017-11-10T00:48:53.824Z,16.87
2017-11-10T00:51:22.003Z,15.80
2017-11-10T00:53:50.182Z,15.20
2017-11-10T00:56:17.602Z,13.73
2017-11-10T00:58:45.024Z,13.87
2017-11-10T01:01:12.434Z,14.37
2017-11-10T01:03:39.843Z,16.13
2017-11-10T01:06:07.259Z,14.23
2017-11-10T01:08:35.442Z,16.03
2017-11-10T01:11:02.864Z,15.60
2017-11-10T01:13:30.283Z,16.63
2017-11-10T01:15:57.721Z,16.40
2017-11-10T01:18:25.128Z,15.63
2017-11-10T01:20:52.555Z,14.47
2017-11-10T01:23:19.967Z,15.33
2017-11-10T01:25:48.143Z,15.73
2017-11-10T01:28:15.559Z,13.37
2017-11-10T01:30:42.983Z,15.03
2017-11-10T01:33:10.395Z,15.90
2017-11-10T01:35:38.604Z,17.47
2017-11-10T01:38:06.768Z,17.23
2017-11-10T01:40:34.182Z,17.87
2017-11-10T01:43:01.612Z,16.33
2017-11-10T01:45:29.027Z,18.13
2017-11-10T01:47:59.362Z,17.07
2017-11-10T01:50:26.767Z,17.13
2017-11-10T01:52:54.201Z,15.50
2017-11-10T01:55:21.607Z,17.30
2017-11-10T01:57:50.163Z,15.83
2017-11-10T02:00:17.548Z,17.77
2017-11-10T02:02:45.736Z,19.17
2017-11-10T02:05:13.146Z,15.67
2017-11-10T02:07:40.572Z,17.20
2017-11-10T02:10:07.982Z,17.60
2017-11-10T02:12:36.182Z,19.80
2017-11-10T02:15:03.602Z,18.20
2017-11-10T02:17:31.016Z,16.83
2017-11-10T02:19:58.431Z,18.17
2017-11-10T02:22:26.614Z,18.07
2017-11-10T02:24:54.799Z,17.13
2017-11-10T02:27:22.219Z,16.77
2017-11-10T02:29:50.159Z,15.90
2017-11-10T02:32:17.576Z,15.13
2017-11-10T02:34:50.999Z,16.60
2017-11-10T02:37:18.412Z,15.40
2017-11-10T02:39:46.602Z,15.23
2017-11-10T02:42:14.016Z,12.90
2017-11-10T02:44:41.467Z,13.63
2017-11-10T02:47:08.899Z,15.60
2017-11-10T02:49:36.299Z,15.43
2017-11-10T02:52:03.716Z,13.63
2017-11-10T02:54:31.893Z,16.03
2017-11-10T02:56:59.310Z,16.87
2017-11-10T02:59:26.710Z,14.13
2017-11-10T03:01:54.133Z,15.10
2017-11-10T03:04:21.550Z,14.10
2017-11-10T03:06:48.964Z,13.00
2017-11-10T03:09:16.379Z,14.37
2017-11-10T03:11:44.569Z,12.17
2017-11-10T03:14:11.996Z,13.50
2017-11-10T03:16:40.184Z,11.63
2017-11-10T03:19:08.355Z,12.03
2017-11-10T03:21:36.551Z,9.77
2017-11-10T03:24:03.967Z,11.17
2017-11-10T03:26:31.381Z,11.73
2017-11-10T03:28:58.796Z,11.17
2017-11-10T03:31:26.966Z,8.77
2017-11-10T03:33:55.163Z,10.03
2017-11-10T03:36:22.575Z,10.07
2017-11-10T03:38:49.998Z,10.37
2017-11-10T03:41:17.419Z,8.80
2017-11-10T03:43:45.606Z,11.00
2017-11-10T03:46:13.016Z,9.57
2017-11-10T03:48:40.431Z,10.57
2017-11-10T03:51:07.844Z,8.83
2017-11-10T03:53:35.255Z,9.07
2017-11-10T03:56:02.676Z,8.67
2017-11-10T03:58:30.091Z,9.60
2017-11-10T04:00:57.516Z,10.43
2017-11-10T04:03:24.925Z,10.43
2017-11-10T04:05:52.334Z,10.43
2017-11-10T04:08:19.750Z,10.47
2017-11-10T04:10:47.935Z,9.77
2017-11-10T04:13:15.352Z,10.57
2017-11-10T04:15:42.786Z,11.70
2017-11-10T04:18:10.197Z,9.53
2017-11-10T04:20:38.380Z,8.90
2017-11-10T04:23:05.778Z,7.97
2017-11-10T04:25:33.199Z,11.03
2017-11-10T04:28:00.616Z,10.37
2017-11-10T04:30:28.043Z,9.50
2017-11-10T04:32:55.451Z,10.90
2017-11-10T04:35:22.871Z,10.47
2017-11-10T04:37:50.292Z,11.73
2017-11-10T04:40:17.711Z,10.60
2017-11-10T04:42:45.903Z,11.57
2017-11-10T04:45:13.315Z,11.20
2017-11-10T04:47:40.724Z,9.83
2017-11-10T04:50:08.139Z,10.77
2017-11-10T04:52:36.332Z,11.40
2017-11-10T04:55:04.523Z,13.33
2017-11-10T04:57:31.935Z,10.57
2017-11-10T04:59:59.351Z,12.50
2017-11-10T05:02:27.148Z,13.00
2017-11-10T05:04:54.571Z,12.40
2017-11-10T05:07:22.000Z,12.03
2017-11-10T05:09:50.171Z,10.37
2017-11-10T05:12:17.613Z,9.67
2017-11-10T05:14:45.786Z,8.67
2017-11-10T05:17:13.968Z,9.87
2017-11-10T05:19:42.155Z,10.60
2017-11-10T05:22:09.572Z,9.27
2017-11-10T05:24:36.985Z,10.13
2017-11-10T05:27:05.196Z,7.87
2017-11-10T05:29:32.616Z,6.70
2017-11-10T05:32:00.011Z,8.10
2017-11-10T05:34:27.432Z,5.80
2017-11-10T05:36:54.860Z,5.70
2017-11-10T05:39:22.250Z,4.50
2017-11-10T05:41:49.666Z,4.50
2017-11-10T05:44:17.843Z,5.17
2017-11-10T05:46:46.015Z,5.10
2017-11-10T05:49:14.207Z,4.60
2017-11-10T05:51:41.643Z,5.67
2017-11-10T05:54:09.032Z,5.20
2017-11-10T05:56:36.452Z,4.63
2017-11-10T05:59:04.993Z,4.57
2017-11-10T06:01:32.394Z,3.60
2017-11-10T06:04:00.575Z,4.00
2017-11-10T06:06:28.756Z,4.20
2017-11-10T06:08:56.151Z,4.40
2017-11-10T06:11:23.573Z,4.77
2017-11-10T06:13:50.983Z,5.03
2017-11-10T06:16:18.397Z,5.63
2017-11-10T06:18:45.820Z,5.50
2017-11-10T06:21:13.998Z,5.47
2017-11-10T06:23:41.406Z,5.60
2017-11-10T06:26:08.832Z,6.50
2017-11-10T06:28:36.240Z,7.03
2017-11-10T06:31:03.666Z,8.23
2017-11-10T06:33:31.079Z,8.40
2017-11-10T06:35:58.493Z,6.90
2017-11-10T06:38:25.920Z,7.23
2017-11-10T06:40:53.341Z,9.63
2017-11-10T06:43:21.518Z,7.27
2017-11-10T06:45:49.687Z,8.20
2017-11-10T06:48:17.874Z,7.90
2017-11-10T06:50:45.283Z,8.33
2017-11-10T06:53:12.708Z,8.83
2017-11-10T06:55:40.114Z,8.30
2017-11-10T06:58:07.536Z,7.90
2017-11-10T07:00:34.947Z,8.33
2017-11-10T07:03:02.363Z,7.93
2017-11-10T07:05:29.774Z,8.03
2017-11-10T07:07:57.187Z,8.43
2017-11-10T07:10:24.596Z,9.57
2017-11-10T07:12:52.011Z,9.87
2017-11-10T07:15:20.200Z,10.20
2017-11-10T07:17:48.371Z,9.67
2017-11-10T07:20:16.554Z,10.47
2017-11-10T07:22:43.968Z,9.73
2017-11-10T07:25:11.389Z,10.20
2017-11-10T07:27:38.807Z,10.73
2017-11-10T07:30:06.997Z,9.17
2017-11-10T07:32:34.401Z,8.87
2017-11-10T07:35:01.834Z,7.97
2017-11-10T07:37:29.230Z,8.47
2017-11-10T07:39:56.653Z,9.60
2017-11-10T07:42:24.071Z,7.70
2017-11-10T07:44:52.268Z,8.90
2017-11-10T07:47:19.684Z,8.83
2017-11-10T07:49:47.851Z,5.80
2017-11-10T07:52:15.264Z,6.53
2017-11-10T07:54:42.684Z,7.03
2017-11-10T07:57:10.857Z,6.83
2017-11-10T07:59:39.121Z,7.07
2017-11-10T08:02:07.308Z,7.17
2017-11-10T08:04:35.475Z,8.73
2017-11-10T08:07:03.665Z,7.57
2017-11-10T08:09:31.068Z,7.30
2017-11-10T08:11:58.478Z,7.40
2017-11-10T08:14:25.888Z,8.83
2017-11-10T08:16:53.316Z,7.53
2017-11-10T08:19:20.723Z,8.20
2017-11-10T08:21:48.896Z,7.30
2017-11-10T08:24:17.082Z,7.00
2017-11-10T08:26:45.264Z,7.23
2017-11-10T08:29:14.075Z,6.67
2017-11-10T08:31:41.484Z,5.93
2017-11-10T08:34:08.898Z,6.73
2017-11-10T08:36:36.309Z,6.47
2017-11-10T08:39:04.487Z,7.43
2017-11-10T08:41:32.674Z,5.87
2017-11-10T08:44:00.079Z,7.40
2017-11-10T08:46:27.497Z,6.90
2017-11-10T08:48:54.911Z,7.20
2017-11-10T08:51:23.087Z,7.97
2017-11-10T08:53:51.271Z,5.60
2017-11-10T08:56:19.453Z,5.93
2017-11-10T08:58:46.854Z,7.03
2017-11-10T09:01:14.271Z,5.90
2017-11-10T09:03:41.679Z,6.00
2017-11-10T09:06:09.117Z,7.50
2017-11-10T09:08:36.499Z,7.80
2017-11-10T09:11:03.911Z,7.23
2017-11-10T09:13:31.315Z,5.63
2017-11-10T09:15:58.735Z,7.20
2017-11-10T09:18:26.147Z,6.33
2017-11-10T09:20:54.328Z,6.53
2017-11-10T09:23:22.507Z,6.10
2017-11-10T09:25:49.923Z,6.70
2017-11-10T09:28:36.183Z,6.13
2017-11-10T09:31:21.331Z,4.77
2017-11-10T09:33:52.163Z,4.47
2017-11-10T09:36:25.320Z,4.17
2017-11-10T09:39:08.508Z,4.40
2017-11-10T09:41:53.629Z,4.40
2017-11-10T09:44:26.605Z,4.23
2017-11-10T09:47:09.791Z,3.80
2017-11-10T09:49:52.974Z,4.87
2017-11-10T09:52:39.746Z,4.03
2017-11-10T09:55:12.908Z,3.57
2017-11-10T09:57:44.251Z,4.27
2017-11-10T10:00:16.091Z,4.00
2017-11-10T10:02:47.632Z,4.60
2017-11-10T10:05:17.172Z,4.30
2017-11-10T10:07:50.323Z,4.60
2017-11-10T10:10:34.196Z,5.10
2017-11-10T10:13:04.007Z,4.50
2017-11-10T10:15:50.133Z,5.30
2017-11-10T10:18:23.271Z,5.70
2017-11-10T10:21:08.691Z,5.40
2017-11-10T10:23:36.074Z,5.53
2017-11-10T10:26:03.487Z,4.10
2017-11-10T10:28:30.898Z,5.57
2017-11-10T10:30:58.316Z,5.77
2017-11-10T10:33:25.721Z,4.70
2017-11-10T10:35:53.124Z,5.70
2017-11-10T10:38:26.531Z,6.23
2017-11-10T10:40:53.934Z,6.07
2017-11-10T10:43:22.134Z,6.30
2017-11-10T10:45:49.539Z,5.37
2017-11-10T10:48:16.939Z,7.33
2017-11-10T10:50:44.343Z,5.77
2017-11-10T10:53:11.747Z,6.30
2017-11-10T10:55:39.162Z,7.20
2017-11-10T10:58:06.572Z,6.80
2017-11-10T11:00:33.988Z,5.77
2017-11-10T11:03:01.396Z,5.03
2017-11-10T11:05:28.807Z,6.77
2017-11-10T11:07:56.975Z,6.37
2017-11-10T11:10:24.391Z,6.53
2017-11-10T11:12:51.799Z,5.93
2017-11-10T11:15:19.988Z,5.90
2017-11-10T11:17:47.398Z,6.47
2017-11-10T11:20:14.842Z,5.57
2017-11-10T11:22:42.245Z,6.63
2017-11-10T11:25:10.418Z,5.87
2017-11-10T11:27:38.607Z,5.13
2017-11-10T11:30:06.011Z,5.70
2017-11-10T11:32:33.419Z,4.23
2017-11-10T11:35:00.831Z,4.20
2017-11-10T11:37:28.246Z,4.30
2017-11-10T11:39:55.660Z,5.70
2017-11-10T11:42:23.064Z,4.27
2017-11-10T11:44:50.473Z,4.57
2017-11-10T11:47:17.883Z,4.83
2017-11-10T11:49:45.291Z,4.77
2017-11-10T11:52:13.496Z,4.20
2017-11-10T11:54:40.886Z,4.13
2017-11-10T11:57:08.300Z,4.10
2017-11-10T11:59:35.717Z,3.77
2017-11-10T12:02:03.127Z,3.20
2017-11-10T12:04:30.531Z,3.60
2017-11-10T12:06:57.938Z,4.00
2017-11-10T12:09:25.347Z,3.43
2017-11-10T12:11:53.514Z,3.57
2017-11-10T12:14:20.928Z,3.90
2017-11-10T12:16:48.338Z,3.93
2017-11-10T12:19:16.510Z,3.80
2017-11-10T12:21:44.687Z,3.23
2017-11-10T12:24:12.874Z,3.93
2017-11-10T12:26:41.048Z,3.50
2017-11-10T12:29:08.460Z,4.60
2017-11-10T12:31:35.870Z,4.47
2017-11-10T12:34:03.288Z,4.40
2017-11-10T12:36:30.694Z,3.70
2017-11-10T12:38:58.112Z,4.23
2017-11-10T12:41:26.280Z,6.10
2017-11-10T12:43:54.477Z,4.53
2017-11-10T12:46:22.647Z,4.37
2017-11-10T12:48:50.059Z,5.10
2017-11-10T12:51:17.475Z,3.60
2017-11-10T12:53:44.875Z,4.13
2017-11-10T12:56:12.300Z,5.00
2017-11-10T12:58:39.704Z,9.33
2017-11-10T13:01:07.122Z,10.70
2017-11-10T13:03:34.539Z,12.17
2017-11-10T13:06:01.947Z,6.30
2017-11-10T13:08:29.375Z,5.30
2017-11-10T13:10:56.792Z,4.53
2017-11-10T13:13:24.963Z,4.90
2017-11-10T13:15:53.151Z,3.93
2017-11-10T13:18:21.332Z,3.83
2017-11-10T13:20:48.736Z,4.30
2017-11-10T13:23:16.152Z,4.03
2017-11-10T13:25:43.568Z,3.90
2017-11-10T13:28:10.977Z,4.03
2017-11-10T13:30:38.388Z,4.30
2017-11-10T13:33:05.793Z,4.53
2017-11-10T13:35:33.195Z,4.10
2017-11-10T13:38:00.611Z,4.40
2017-11-10T13:40:28.010Z,4.70
2017-11-10T13:42:56.187Z,4.07
2017-11-10T13:45:24.366Z,3.67
2017-11-10T13:47:52.547Z,3.70
2017-11-10T13:50:20.734Z,3.10
2017-11-10T13:52:48.143Z,2.40
2017-11-10T13:55:15.555Z,2.60
2017-11-10T13:57:42.983Z,2.43
2017-11-10T14:00:10.381Z,2.90
2017-11-10T14:02:37.795Z,2.40
2017-11-10T14:05:05.970Z,2.50
2017-11-10T14:07:34.166Z,2.80
2017-11-10T14:10:01.571Z,1.93
2017-11-10T14:12:28.974Z,2.27
2017-11-10T14:14:56.383Z,3.40
2017-11-10T14:17:23.806Z,3.00
2017-11-10T14:19:51.212Z,2.93
2017-11-10T14:22:18.624Z,2.50
2017-11-10T14:24:46.035Z,3.20
2017-11-10T14:27:14.210Z,4.70
2017-11-10T14:29:42.396Z,4.03
2017-11-10T14:32:09.795Z,2.57
2017-11-10T14:34:37.230Z,4.70
2017-11-10T14:37:04.641Z,15.23
2017-11-10T14:39:32.052Z,6.17
2017-11-10T14:41:59.456Z,6.13
2017-11-10T14:44:27.642Z,3.17
2017-11-10T14:46:55.823Z,11.13
2017-11-10T14:49:23.243Z,5.53
2017-11-10T14:51:50.654Z,4.70
2017-11-10T14:54:18.081Z,15.73
2017-11-10T14:56:46.259Z,11.20
2017-11-10T14:59:14.447Z,5.57
2017-11-10T15:01:41.853Z,4.53
2017-11-10T15:04:09.251Z,2.90
2017-11-10T15:06:36.659Z,2.57
2017-11-10T15:09:04.070Z,3.70
2017-11-10T15:11:31.488Z,3.20
2017-11-10T15:13:58.904Z,2.70
2017-11-10T15:16:26.309Z,2.17
2017-11-10T15:18:54.483Z,1.90
2017-11-10T15:21:22.660Z,2.20
2017-11-10T15:23:50.850Z,2.53
2017-11-10T15:26:18.258Z,2.50
2017-11-10T15:28:45.681Z,2.03
2017-11-10T15:31:13.091Z,2.07
2017-11-10T15:33:40.512Z,1.80
2017-11-10T15:36:07.921Z,2.20
2017-11-10T15:38:36.095Z,1.90
2017-11-10T15:41:04.267Z,3.87
2017-11-10T15:43:32.444Z,1.93
2017-11-10T15:46:00.626Z,1.63
2017-11-10T15:48:28.803Z,2.00
2017-11-10T15:50:56.216Z,1.93
2017-11-10T15:53:23.627Z,2.47
2017-11-10T15:55:51.040Z,3.37
2017-11-10T15:58:18.451Z,2.30
2017-11-10T16:00:45.874Z,3.33
2017-11-10T16:03:14.039Z,2.53
2017-11-10T16:05:42.221Z,2.50
2017-11-10T16:08:10.395Z,2.90
2017-11-10T16:10:38.572Z,1.80
2017-11-10T16:13:05.974Z,2.80
2017-11-10T16:15:33.383Z,3.13
2017-11-10T16:18:00.796Z,2.20
2017-11-10T16:20:28.211Z,2.30
2017-11-10T16:22:55.625Z,2.70
2017-11-10T16:25:23.056Z,1.87
2017-11-10T16:27:50.467Z,2.10
2017-11-10T16:30:17.875Z,3.47
2017-11-10T16:32:45.284Z,2.60
2017-11-10T16:35:12.686Z,2.80
2017-11-10T16:37:40.104Z,5.37
2017-11-10T16:40:07.523Z,2.10
2017-11-10T16:42:34.935Z,2.07
2017-11-10T16:45:02.360Z,2.93
2017-11-10T16:47:29.763Z,1.90
2017-11-10T16:49:57.175Z,2.10
2017-11-10T16:52:24.587Z,1.67
2017-11-10T16:54:51.987Z,2.17
2017-11-10T16:57:19.412Z,2.23
2017-11-10T16:59:46.810Z,1.60
2017-11-10T17:02:14.243Z,2.20
2017-11-10T17:04:41.643Z,1.93
2017-11-10T17:07:09.058Z,1.97
2017-11-10T17:09:37.233Z,2.10
2017-11-10T17:12:04.636Z,2.47
2017-11-10T17:14:32.057Z,1.97
2017-11-10T17:16:59.468Z,1.60
2017-11-10T17:19:26.875Z,2.33
2017-11-10T17:21:54.288Z,2.50
2017-11-10T17:24:21.717Z,2.60
2017-11-10T17:26:49.116Z,3.03
2017-11-10T17:29:17.296Z,3.03
2017-11-10T17:31:44.723Z,4.87
2017-11-10T17:34:12.125Z,3.20
2017-11-10T17:36:39.523Z,3.40
2017-11-10T17:39:06.956Z,4.00
2017-11-10T17:41:34.363Z,3.73
2017-11-10T17:44:02.540Z,3.03
2017-11-10T17:46:30.715Z,4.33
2017-11-10T17:48:58.911Z,3.33
2017-11-10T17:51:27.063Z,3.23
2017-11-10T17:53:55.239Z,4.13
2017-11-10T17:56:23.416Z,3.40
2017-11-10T17:58:50.824Z,4.03
2017-11-10T18:01:18.235Z,5.03
2017-11-10T18:03:45.642Z,5.20
2017-11-10T18:06:13.061Z,5.13
2017-11-10T18:08:40.467Z,4.87
2017-11-10T18:11:07.880Z,4.30
2017-11-10T18:13:35.292Z,5.50
2017-11-10T18:16:03.487Z,3.70
2017-11-10T18:18:30.895Z,4.60
2017-11-10T18:20:58.295Z,4.73
2017-11-10T18:23:25.712Z,4.70
2017-11-10T18:25:53.122Z,4.90
2017-11-10T18:28:20.530Z,4.67
2017-11-10T18:30:47.948Z,4.97
2017-11-10T18:33:15.362Z,4.20
2017-11-10T18:35:43.531Z,4.90
2017-11-10T18:38:11.708Z,4.53
2017-11-10T18:40:39.883Z,5.47
2017-11-10T18:43:08.062Z,5.60
2017-11-10T18:45:36.239Z,3.73
2017-11-10T18:48:03.660Z,4.13
2017-11-10T18:50:31.075Z,4.03
2017-11-10T18:53:04.550Z,3.83
2017-11-10T18:55:32.730Z,4.00
2017-11-10T18:58:00.171Z,4.37
2017-11-10T19:00:27.571Z,5.10
2017-11-10T19:02:55.189Z,4.80
2017-11-10T19:05:23.368Z,4.13
2017-11-10T19:07:51.543Z,4.57
2017-11-10T19:10:18.965Z,4.20
2017-11-10T19:12:46.364Z,4.37
2017-11-10T19:15:13.772Z,3.93
2017-11-10T19:17:41.191Z,4.30
2017-11-10T19:20:08.598Z,3.03
2017-11-10T19:22:36.012Z,3.37
2017-11-10T19:25:03.424Z,3.83
2017-11-10T19:27:31.600Z,3.60
2017-11-10T19:29:59.783Z,3.57
2017-11-10T19:32:27.955Z,4.00
2017-11-10T19:34:55.367Z,2.90
2017-11-10T19:37:22.787Z,3.87
2017-11-10T19:40:02.181Z,3.40
2017-11-10T19:42:29.585Z,3.53
2017-11-10T19:44:57.002Z,3.63
2017-11-10T19:47:24.415Z,4.00
2017-11-10T19:49:51.827Z,3.10
2017-11-10T19:52:19.245Z,2.80
2017-11-10T19:54:46.655Z,3.93
2017-11-10T19:57:14.067Z,3.80
2017-11-10T19:59:41.480Z,3.30
2017-11-10T20:02:08.889Z,3.20
2017-11-10T20:04:37.063Z,3.97
2017-11-10T20:07:05.247Z,4.70
2017-11-10T20:09:33.432Z,3.60
2017-11-10T20:12:01.604Z,3.97
2017-11-10T20:14:29.007Z,4.80
2017-11-10T20:16:56.430Z,4.00
2017-11-10T20:19:23.840Z,3.53
2017-11-10T20:21:51.279Z,3.23
2017-11-10T20:24:18.675Z,3.67
2017-11-10T20:26:46.850Z,4.00
2017-11-10T20:29:15.035Z,3.87
2017-11-10T20:31:42.439Z,2.83
2017-11-10T20:34:09.856Z,3.50
2017-11-10T20:36:37.263Z,2.67
2017-11-10T20:39:04.681Z,2.87
2017-11-10T20:41:32.094Z,3.23
2017-11-10T20:44:00.632Z,3.30
2017-11-10T20:46:28.013Z,3.30
2017-11-10T20:48:55.432Z,2.80
2017-11-10T20:51:22.840Z,3.40
2017-11-10T20:53:50.260Z,4.33
2017-11-10T20:56:18.435Z,5.53
2017-11-10T20:58:45.860Z,3.87
2017-11-10T21:01:13.263Z,3.17
2017-11-10T21:03:40.683Z,3.70
2017-11-10T21:06:08.091Z,3.90
2017-11-10T21:08:35.519Z,3.53
2017-11-10T21:11:02.928Z,4.00
2017-11-10T21:13:30.336Z,3.20
2017-11-10T21:15:57.782Z,4.60
2017-11-10T21:18:25.162Z,4.13
2017-11-10T21:20:52.574Z,3.00
2017-11-10T21:23:19.984Z,3.00
2017-11-10T21:25:47.403Z,3.43
2017-11-10T21:28:14.823Z,2.90
2017-11-10T21:30:42.236Z,2.90
2017-11-10T21:33:09.655Z,2.60
2017-11-10T21:35:37.055Z,2.60
2017-11-10T21:38:04.461Z,3.40
2017-11-10T21:40:31.872Z,2.73
2017-11-10T21:42:59.277Z,3.13
2017-11-10T21:45:26.711Z,2.77
2017-11-10T21:47:54.119Z,2.90
2017-11-10T21:50:21.522Z,3.50
2017-11-10T21:52:48.936Z,3.77
2017-11-10T21:55:16.347Z,2.20
2017-11-10T21:57:43.767Z,2.90
2017-11-10T22:00:11.944Z,3.90
2017-11-10T22:02:40.137Z,2.50
2017-11-10T22:05:07.545Z,2.83
2017-11-10T22:07:34.954Z,4.17
2017-11-10T22:10:02.369Z,3.10
2017-11-10T22:12:29.786Z,2.70
2017-11-10T22:14:57.195Z,3.70
2017-11-10T22:17:25.388Z,2.87
2017-11-10T22:19:52.795Z,2.50
2017-11-10T22:22:20.207Z,3.30
2017-11-10T22:24:47.617Z,2.43
2017-11-10T22:27:15.038Z,4.50
2017-11-10T22:29:42.440Z,2.60
2017-11-10T22:32:09.849Z,3.23
2017-11-10T22:34:37.252Z,2.10
2017-11-10T22:37:04.669Z,2.43
2017-11-10T22:39:32.067Z,3.07
2017-11-10T22:41:59.502Z,2.93
2017-11-10T22:44:26.907Z,3.17
2017-11-10T22:46:54.327Z,2.30
2017-11-10T22:49:21.726Z,2.33
2017-11-10T22:51:49.128Z,1.97
2017-11-10T22:54:16.542Z,2.43
2017-11-10T22:56:43.961Z,1.90
2017-11-10T22:59:11.368Z,3.03
2017-11-10T23:01:38.782Z,2.13
2017-11-10T23:04:06.973Z,3.60
2017-11-10T23:06:34.371Z,3.10
2017-11-10T23:09:01.782Z,2.50
2017-11-10T23:11:29.193Z,4.20
2017-11-10T23:13:56.612Z,1.50
2017-11-10T23:16:24.018Z,2.60
2017-11-10T23:18:51.427Z,1.87
2017-11-10T23:21:19.189Z,2.63
2017-11-10T23:23:46.595Z,3.03
2017-11-10T23:26:14.011Z,3.10
2017-11-10T23:28:41.419Z,2.63
2017-11-10T23:31:09.596Z,2.87
2017-11-10T23:33:37.784Z,2.83
2017-11-10T23:36:05.192Z,2.60
2017-11-10T23:38:32.604Z,2.70
2017-11-10T23:41:00.019Z,2.80
2017-11-10T23:43:27.426Z,2.83
2017-11-10T23:45:54.835Z,1.93
2017-11-10T23:48:22.238Z,3.07
2017-11-10T23:50:49.647Z,2.73
2017-11-10T23:53:17.058Z,2.13
2017-11-10T23:55:44.471Z,2.77
2017-11-10T23:58:12.644Z,3.17
